createdAt,value
2023-10-20T00:02:06.232Z,37.88
2023-10-20T00:04:34.890Z,37.00
2023-10-20T00:07:01.516Z,36.05
2023-10-20T00:09:28.172Z,35.10
2023-10-20T00:11:54.698Z,33.85
2023-10-20T00:14:21.304Z,34.85
2023-10-20T00:16:47.898Z,37.10
2023-10-20T00:19:14.391Z,38.13
2023-10-20T00:21:40.921Z,37.53
2023-10-20T00:24:07.695Z,36.45
2023-10-20T00:26:34.256Z,37.33
2023-10-20T00:29:01.549Z,36.80
2023-10-20T00:31:28.554Z,35.95
2023-10-20T00:33:55.100Z,37.70
2023-10-20T00:36:21.602Z,36.65
2023-10-20T00:38:48.093Z,34.85
2023-10-20T00:41:14.765Z,37.40
2023-10-20T00:43:41.556Z,37.15
2023-10-20T00:46:11.666Z,35.33
2023-10-20T00:48:38.755Z,32.92
2023-10-20T00:51:08.644Z,35.58
2023-10-20T00:53:36.205Z,32.97
2023-10-20T00:56:04.540Z,34.75
2023-10-20T00:58:31.759Z,36.85
2023-10-20T01:00:58.311Z,36.25
2023-10-20T01:03:25.118Z,36.90
2023-10-20T01:05:52.849Z,33.65
2023-10-20T01:08:19.333Z,36.20
2023-10-20T01:10:45.968Z,36.38
2023-10-20T01:13:12.516Z,35.20
2023-10-20T01:15:39.508Z,35.15
2023-10-20T01:18:06.224Z,35.38
2023-10-20T01:20:32.825Z,35.22
2023-10-20T01:23:00.817Z,35.47
2023-10-20T01:25:28.094Z,36.13
2023-10-20T01:27:54.880Z,35.70
2023-10-20T01:30:22.231Z,34.13
2023-10-20T01:32:49.155Z,35.58
2023-10-20T01:35:15.876Z,37.38
2023-10-20T01:37:42.470Z,37.53
2023-10-20T01:40:10.953Z,39.40
2023-10-20T01:42:37.550Z,38.90
2023-10-20T01:45:04.334Z,39.35
2023-10-20T01:47:30.861Z,38.42
2023-10-20T01:49:57.673Z,37.72
2023-10-20T01:52:24.244Z,38.88
2023-10-20T01:54:50.778Z,40.17
2023-10-20T01:57:17.326Z,37.38
2023-10-20T01:59:43.813Z,39.15
2023-10-20T02:02:10.490Z,35.33
2023-10-20T02:04:37.675Z,35.15
2023-10-20T02:07:04.333Z,36.60
2023-10-20T02:09:30.819Z,37.15
2023-10-20T02:12:00.008Z,36.42
2023-10-20T02:14:27.040Z,37.95
2023-10-20T02:16:53.690Z,38.63
2023-10-20T02:19:20.241Z,39.33
2023-10-20T02:21:48.530Z,38.40
2023-10-20T02:24:15.349Z,38.65
2023-10-20T02:26:41.989Z,39.65
2023-10-20T02:29:08.652Z,39.15
2023-10-20T02:31:35.277Z,39.60
2023-10-20T02:34:01.769Z,40.80
2023-10-20T02:36:28.357Z,39.83
2023-10-20T02:38:54.932Z,41.83
2023-10-20T02:41:21.552Z,41.80
2023-10-20T02:43:48.124Z,40.72
2023-10-20T02:46:14.783Z,40.33
2023-10-20T02:48:41.488Z,41.65
2023-10-20T02:51:11.019Z,39.65
2023-10-20T02:53:40.626Z,38.45
2023-10-20T02:56:13.962Z,38.08
2023-10-20T02:58:40.859Z,39.35
2023-10-20T03:01:10.703Z,39.28
2023-10-20T03:03:37.943Z,40.17
2023-10-20T03:06:05.467Z,37.25
2023-10-20T03:08:32.458Z,36.72
2023-10-20T03:10:59.053Z,39.45
2023-10-20T03:13:26.789Z,38.15
2023-10-20T03:15:54.010Z,36.88
2023-10-20T03:18:20.909Z,39.08
2023-10-20T03:20:48.913Z,39.28
2023-10-20T03:23:16.366Z,41.88
2023-10-20T03:25:43.430Z,40.30
2023-10-20T03:28:09.984Z,38.95
2023-10-20T03:30:40.585Z,41.97
2023-10-20T03:33:12.135Z,40.38
2023-10-20T03:35:38.866Z,40.60
2023-10-20T03:38:06.534Z,41.72
2023-10-20T03:40:37.699Z,38.40
2023-10-20T03:43:09.640Z,41.05
2023-10-20T03:45:57.859Z,40.10
2023-10-20T03:48:25.166Z,42.65
2023-10-20T03:50:53.347Z,43.10
2023-10-20T03:53:23.550Z,42.00
2023-10-20T03:56:08.104Z,43.58
2023-10-20T03:58:37.184Z,42.78
2023-10-20T04:01:04.111Z,44.30
2023-10-20T04:03:33.876Z,42.38
2023-10-20T04:06:02.120Z,44.45
2023-10-20T04:08:29.008Z,43.95
2023-10-20T04:10:59.109Z,43.92
2023-10-20T04:13:25.729Z,45.90
2023-10-20T04:15:53.995Z,44.15
2023-10-20T04:18:20.906Z,42.30
2023-10-20T04:20:49.469Z,42.50
2023-10-20T04:23:18.069Z,44.58
2023-10-20T04:25:53.910Z,44.13
2023-10-20T04:28:21.804Z,44.00
2023-10-20T04:31:06.899Z,42.63
2023-10-20T04:33:52.193Z,43.13
2023-10-20T04:36:37.255Z,43.90
2023-10-20T04:39:22.457Z,43.58
2023-10-20T04:41:56.657Z,43.30
2023-10-20T04:44:23.423Z,43.00
2023-10-20T04:47:01.846Z,44.13
2023-10-20T04:49:47.681Z,43.38
2023-10-20T04:52:32.943Z,42.67
2023-10-20T04:55:19.769Z,43.10
2023-10-20T05:00:13.559Z,42.58
2023-10-20T05:02:53.097Z,41.30
2023-10-20T05:05:26.377Z,43.08
2023-10-20T05:07:53.540Z,40.67
2023-10-20T05:10:20.797Z,43.72
2023-10-20T05:12:48.015Z,43.10
2023-10-20T05:15:14.927Z,43.28
2023-10-20T05:17:41.804Z,42.15
2023-10-20T05:20:14.257Z,42.70
2023-10-20T05:22:43.715Z,44.80
2023-10-20T05:25:12.792Z,44.67
2023-10-20T05:27:39.802Z,44.97
2023-10-20T05:30:08.363Z,43.53
2023-10-20T05:32:38.718Z,44.80
2023-10-20T05:35:08.528Z,44.47
2023-10-20T05:37:35.353Z,44.25
2023-10-20T05:40:02.477Z,42.22
2023-10-20T05:42:29.111Z,42.92
2023-10-20T05:45:04.846Z,43.92
2023-10-20T05:47:31.756Z,43.45
2023-10-20T05:49:59.187Z,41.85
2023-10-20T05:52:25.849Z,43.28
2023-10-20T05:54:52.452Z,41.90
2023-10-20T05:57:18.987Z,43.03
2023-10-20T05:59:46.943Z,43.13
2023-10-20T06:02:13.596Z,42.15
2023-10-20T06:04:40.228Z,42.42
2023-10-20T06:07:08.298Z,42.15
2023-10-20T06:09:35.130Z,42.53
2023-10-20T06:12:02.219Z,42.72
2023-10-20T06:14:28.935Z,40.03
2023-10-20T06:16:56.012Z,41.15
2023-10-20T06:19:22.620Z,41.40
2023-10-20T06:21:49.413Z,40.03
2023-10-20T06:24:15.916Z,41.33
2023-10-20T06:26:42.482Z,40.70
2023-10-20T06:29:29.022Z,42.15
2023-10-20T06:31:59.675Z,41.13
2023-10-20T06:34:26.269Z,40.78
2023-10-20T06:37:02.459Z,39.47
2023-10-20T06:39:28.896Z,42.55
2023-10-20T06:41:55.405Z,40.60
2023-10-20T06:44:21.919Z,38.35
2023-10-20T06:46:48.461Z,39.90
2023-10-20T06:49:19.925Z,39.47
2023-10-20T06:51:50.341Z,40.90
2023-10-20T06:54:17.732Z,40.20
2023-10-20T06:56:45.043Z,38.97
2023-10-20T06:59:17.845Z,42.15
2023-10-20T07:01:45.640Z,40.13
2023-10-20T07:04:12.990Z,41.53
2023-10-20T07:06:39.721Z,40.55
2023-10-20T07:09:15.610Z,45.75
2023-10-20T07:11:43.153Z,42.88
2023-10-20T07:14:11.671Z,46.05
2023-10-20T07:16:38.340Z,46.78
2023-10-20T07:19:05.121Z,45.78
2023-10-20T07:21:31.882Z,44.33
2023-10-20T07:23:58.482Z,46.25
2023-10-20T07:26:25.638Z,45.20
2023-10-20T07:28:52.319Z,44.20
2023-10-20T07:31:27.454Z,42.97
2023-10-20T07:33:54.280Z,39.88
2023-10-20T07:36:21.469Z,35.38
2023-10-20T07:38:48.229Z,36.22
2023-10-20T07:41:14.891Z,35.65
2023-10-20T07:43:41.846Z,39.00
2023-10-20T07:46:14.758Z,38.78
2023-10-20T07:48:41.518Z,37.55
2023-10-20T07:51:08.210Z,36.10
2023-10-20T07:53:35.067Z,35.22
2023-10-20T07:56:02.061Z,31.83
2023-10-20T07:58:29.245Z,33.17
2023-10-20T08:00:55.802Z,33.35
2023-10-20T08:03:23.886Z,32.25
2023-10-20T08:05:51.463Z,31.42
2023-10-20T08:08:18.683Z,28.85
2023-10-20T08:10:45.387Z,28.10
2023-10-20T08:13:11.894Z,23.92
2023-10-20T08:15:39.915Z,23.60
2023-10-20T08:18:08.583Z,23.73
2023-10-20T08:20:35.493Z,23.15
2023-10-20T08:23:02.051Z,24.33
2023-10-20T08:25:28.600Z,26.20
2023-10-20T08:27:55.161Z,22.60
2023-10-20T08:30:22.087Z,23.42
2023-10-20T08:32:48.730Z,23.83
2023-10-20T08:35:15.551Z,24.20
2023-10-20T08:37:42.057Z,23.30
2023-10-20T08:40:11.821Z,27.33
2023-10-20T08:42:39.878Z,24.95
2023-10-20T08:45:11.976Z,25.25
2023-10-20T08:47:39.688Z,23.98
2023-10-20T08:50:08.429Z,23.63
2023-10-20T08:52:35.936Z,21.67
2023-10-20T08:55:05.413Z,22.95
2023-10-20T08:57:32.044Z,22.20
2023-10-20T08:59:58.765Z,21.92
2023-10-20T09:02:36.009Z,19.55
2023-10-20T09:05:02.500Z,20.92
2023-10-20T09:07:30.989Z,19.23
2023-10-20T09:09:57.544Z,18.95
2023-10-20T09:12:26.201Z,20.83
2023-10-20T09:14:57.660Z,18.73
2023-10-20T09:17:24.797Z,18.88
2023-10-20T09:19:51.501Z,17.85
2023-10-20T09:22:27.556Z,18.27
2023-10-20T09:24:56.606Z,18.75
2023-10-20T09:27:23.702Z,17.77
2023-10-20T09:29:51.251Z,16.02
2023-10-20T09:32:18.212Z,16.80
2023-10-20T09:34:44.729Z,15.40
2023-10-20T09:37:13.441Z,15.30
2023-10-20T09:39:40.616Z,15.05
2023-10-20T09:42:07.916Z,14.82
2023-10-20T09:44:48.323Z,15.52
2023-10-20T09:47:35.359Z,14.20
2023-10-20T09:50:02.240Z,14.60
2023-10-20T09:52:30.712Z,15.00
2023-10-20T09:54:57.584Z,14.70
2023-10-20T09:57:24.403Z,16.08
2023-10-20T09:59:54.339Z,15.13
2023-10-20T10:02:28.095Z,14.85
2023-10-20T10:04:55.391Z,14.77
2023-10-20T10:07:48.206Z,15.63
2023-10-20T10:10:21.556Z,16.05
2023-10-20T10:12:59.209Z,15.50
2023-10-20T10:15:35.151Z,16.15
2023-10-20T10:18:08.387Z,14.02
2023-10-20T10:20:41.139Z,13.70
2023-10-20T10:23:10.125Z,12.25
2023-10-20T10:25:36.711Z,11.98
2023-10-20T10:28:09.405Z,11.20
2023-10-20T10:30:38.133Z,12.40
2023-10-20T10:33:05.710Z,12.35
2023-10-20T10:35:32.429Z,11.60
2023-10-20T10:37:58.993Z,11.77
2023-10-20T10:40:26.386Z,12.18
2023-10-20T10:42:53.475Z,11.93
2023-10-20T10:45:23.083Z,11.65
2023-10-20T10:48:04.048Z,12.35
2023-10-20T10:50:31.483Z,12.43
2023-10-20T10:52:57.992Z,12.32
2023-10-20T10:55:25.889Z,11.32
2023-10-20T10:57:52.546Z,11.02
2023-10-20T11:00:19.711Z,11.60
2023-10-20T11:02:46.894Z,11.15
2023-10-20T11:05:14.143Z,11.27
2023-10-20T11:07:41.519Z,9.98
2023-10-20T11:10:08.823Z,9.85
2023-10-20T11:12:36.116Z,8.88
2023-10-20T11:15:03.544Z,7.40
2023-10-20T11:17:30.860Z,6.30
2023-10-20T11:19:57.601Z,6.13
2023-10-20T11:22:24.290Z,4.93
2023-10-20T11:24:51.771Z,4.47
2023-10-20T11:27:18.512Z,4.72
2023-10-20T11:29:58.299Z,5.07
2023-10-20T11:32:27.141Z,4.40
2023-10-20T11:34:54.137Z,3.97
2023-10-20T11:37:20.680Z,4.65
2023-10-20T11:39:47.123Z,4.68
2023-10-20T11:42:13.598Z,4.80
2023-10-20T11:44:40.342Z,4.10
2023-10-20T11:47:07.694Z,4.07
2023-10-20T11:49:34.421Z,3.40
2023-10-20T11:52:01.447Z,3.80
2023-10-20T11:54:27.937Z,3.33
2023-10-20T11:56:54.526Z,3.10
2023-10-20T11:59:21.267Z,3.03
2023-10-20T12:01:47.921Z,2.60
2023-10-20T12:04:14.757Z,3.10
2023-10-20T12:06:41.326Z,3.20
2023-10-20T12:09:14.928Z,3.13
2023-10-20T12:11:42.046Z,2.88
2023-10-20T12:14:10.490Z,3.17
2023-10-20T12:16:37.203Z,2.90
2023-10-20T12:19:05.380Z,3.00
2023-10-20T12:21:32.033Z,2.47
2023-10-20T12:23:58.662Z,2.20
2023-10-20T12:26:28.220Z,2.42
2023-10-20T12:28:54.824Z,2.58
2023-10-20T12:31:21.303Z,2.00
2023-10-20T12:33:48.035Z,2.30
2023-10-20T12:36:14.883Z,2.40
2023-10-20T12:38:44.972Z,2.42
2023-10-20T12:41:15.038Z,3.08
2023-10-20T12:43:42.293Z,2.63
2023-10-20T12:46:13.448Z,2.95
2023-10-20T12:48:41.578Z,2.50
2023-10-20T12:51:11.977Z,3.13
2023-10-20T12:53:38.635Z,3.35
2023-10-20T12:56:06.325Z,3.55
2023-10-20T12:58:36.741Z,3.42
2023-10-20T13:01:03.614Z,3.65
2023-10-20T13:03:30.874Z,3.50
2023-10-20T13:05:57.597Z,2.85
2023-10-20T13:08:25.418Z,2.47
2023-10-20T13:10:52.898Z,2.78
2023-10-20T13:13:19.587Z,3.03
2023-10-20T13:15:46.373Z,3.50
2023-10-20T13:18:16.986Z,3.97
2023-10-20T13:20:46.697Z,4.38
2023-10-20T13:23:13.951Z,4.05
2023-10-20T13:25:40.485Z,4.72
2023-10-20T13:28:07.203Z,4.43
2023-10-20T13:30:33.789Z,4.50
2023-10-20T13:33:01.832Z,4.35
2023-10-20T13:35:28.393Z,3.58
2023-10-20T13:37:54.978Z,3.63
2023-10-20T13:40:21.709Z,3.72
2023-10-20T13:42:48.318Z,3.28
2023-10-20T13:45:14.914Z,2.83
2023-10-20T13:47:41.559Z,1.95
2023-10-20T13:50:10.183Z,2.20
2023-10-20T13:52:36.896Z,1.90
2023-10-20T13:55:03.509Z,2.33
2023-10-20T13:57:29.993Z,2.40
2023-10-20T13:59:56.564Z,2.40
2023-10-20T14:02:23.328Z,2.30
2023-10-20T14:04:50.391Z,2.72
2023-10-20T14:07:17.494Z,3.03
2023-10-20T14:09:44.021Z,2.78
2023-10-20T14:12:10.466Z,2.75
2023-10-20T14:14:37.480Z,1.95
2023-10-20T14:17:10.415Z,2.40
2023-10-20T14:19:37.263Z,2.30
2023-10-20T14:22:04.852Z,2.28
2023-10-20T14:24:31.418Z,2.50
2023-10-20T14:27:00.055Z,2.78
2023-10-20T14:29:26.847Z,3.35
2023-10-20T14:31:53.805Z,3.05
2023-10-20T14:34:20.727Z,2.70
2023-10-20T14:36:47.523Z,2.95
2023-10-20T14:39:14.043Z,2.80
2023-10-20T14:41:40.640Z,2.38
2023-10-20T14:44:07.317Z,2.88
2023-10-20T14:46:33.859Z,3.10
2023-10-20T14:49:00.471Z,2.60
2023-10-20T14:51:27.036Z,2.70
2023-10-20T14:53:53.741Z,2.55
2023-10-20T14:56:20.255Z,2.78
2023-10-20T14:58:46.860Z,2.53
2023-10-20T15:01:13.415Z,2.13
2023-10-20T15:03:40.165Z,2.75
2023-10-20T15:06:07.140Z,2.63
2023-10-20T15:08:34.599Z,2.60
2023-10-20T15:11:05.576Z,2.58
2023-10-20T15:13:32.729Z,2.50
2023-10-20T15:16:03.568Z,2.65
2023-10-20T15:18:31.260Z,2.78
2023-10-20T15:20:58.470Z,2.80
2023-10-20T15:23:25.016Z,2.58
2023-10-20T15:25:51.535Z,2.83
2023-10-20T15:28:18.151Z,2.88
2023-10-20T15:30:44.655Z,3.15
2023-10-20T15:33:11.354Z,3.03
2023-10-20T15:35:41.332Z,2.63
2023-10-20T15:38:11.485Z,2.80
2023-10-20T15:40:38.670Z,2.88
2023-10-20T15:43:05.252Z,2.80
2023-10-20T15:45:31.878Z,3.10
2023-10-20T15:48:01.252Z,2.63
2023-10-20T15:50:27.893Z,2.67
2023-10-20T15:52:54.448Z,2.58
2023-10-20T15:55:20.888Z,3.20
2023-10-20T15:57:47.337Z,3.47
2023-10-20T16:00:14.172Z,3.40
2023-10-20T16:02:41.068Z,3.25
2023-10-20T16:05:07.908Z,3.60
2023-10-20T16:07:34.385Z,3.30
2023-10-20T16:10:00.860Z,3.15
2023-10-20T16:12:27.329Z,3.20
2023-10-20T16:14:56.277Z,4.20
2023-10-20T16:17:23.444Z,5.32
2023-10-20T16:19:50.128Z,4.13
2023-10-20T16:22:16.587Z,4.88
2023-10-20T16:24:43.047Z,4.85
2023-10-20T16:27:09.737Z,6.15
2023-10-20T16:29:36.444Z,8.63
2023-10-20T16:32:03.156Z,8.10
2023-10-20T16:34:29.978Z,10.77
2023-10-20T16:36:56.614Z,5.60
2023-10-20T16:39:24.104Z,4.60
2023-10-20T16:41:51.268Z,6.22
2023-10-20T16:44:17.999Z,6.32
2023-10-20T16:46:44.605Z,6.30
2023-10-20T16:49:11.350Z,6.65
2023-10-20T16:51:39.287Z,6.82
2023-10-20T16:54:05.961Z,7.60
2023-10-20T16:56:32.526Z,7.57
2023-10-20T16:58:59.494Z,7.07
2023-10-20T17:01:28.445Z,8.40
2023-10-20T17:03:55.372Z,8.48
2023-10-20T17:06:22.129Z,7.45
2023-10-20T17:08:48.691Z,7.63
2023-10-20T17:11:16.669Z,7.70
2023-10-20T17:13:43.119Z,7.45
2023-10-20T17:16:10.112Z,6.78
2023-10-20T17:18:36.730Z,6.57
2023-10-20T17:21:10.322Z,7.05
2023-10-20T17:23:36.862Z,6.50
2023-10-20T17:26:05.181Z,5.80
2023-10-20T17:28:32.092Z,6.88
2023-10-20T17:31:00.771Z,6.32
2023-10-20T17:33:27.670Z,6.18
2023-10-20T17:35:54.915Z,7.10
2023-10-20T17:38:21.488Z,6.25
2023-10-20T17:40:48.232Z,6.47
2023-10-20T17:43:14.839Z,5.80
2023-10-20T17:45:41.416Z,6.35
2023-10-20T17:48:08.798Z,6.50
2023-10-20T17:50:38.951Z,6.10
2023-10-20T17:53:06.271Z,6.30
2023-10-20T17:55:33.137Z,6.18
2023-10-20T17:57:59.946Z,5.80
2023-10-20T18:00:26.487Z,6.10
2023-10-20T18:02:54.561Z,6.03
2023-10-20T18:05:21.292Z,5.53
2023-10-20T18:07:48.073Z,6.70
2023-10-20T18:10:14.657Z,5.78
2023-10-20T18:12:41.246Z,6.18
2023-10-20T18:15:08.078Z,5.93
2023-10-20T18:17:34.662Z,5.82
2023-10-20T18:20:01.275Z,6.22
2023-10-20T18:22:27.823Z,6.47
2023-10-20T18:24:54.383Z,6.80
2023-10-20T18:27:21.050Z,6.63
2023-10-20T18:29:47.596Z,6.55
2023-10-20T18:32:14.206Z,6.85
2023-10-20T18:34:40.660Z,6.60
2023-10-20T18:37:07.211Z,6.72
2023-10-20T18:39:33.992Z,6.25
2023-10-20T18:42:00.910Z,6.03
2023-10-20T18:44:27.463Z,6.65
2023-10-20T18:46:53.976Z,6.82
2023-10-20T18:49:21.559Z,7.53
2023-10-20T18:51:48.029Z,6.32
2023-10-20T18:54:14.949Z,6.13
2023-10-20T18:56:41.473Z,6.22
2023-10-20T18:59:08.015Z,6.60
2023-10-20T19:01:34.696Z,5.55
2023-10-20T19:04:02.534Z,6.38
2023-10-20T19:06:29.682Z,6.13
2023-10-20T19:08:56.360Z,6.43
2023-10-20T19:11:23.142Z,6.70
2023-10-20T19:13:49.608Z,5.82
2023-10-20T19:16:16.682Z,6.82
2023-10-20T19:18:43.788Z,6.22
2023-10-20T19:21:12.282Z,7.05
2023-10-20T19:23:39.274Z,7.63
2023-10-20T19:26:09.007Z,7.30
2023-10-20T19:28:35.681Z,8.23
2023-10-20T19:31:03.145Z,7.15
2023-10-20T19:33:31.904Z,7.18
2023-10-20T19:36:06.357Z,7.18
2023-10-20T19:38:33.308Z,7.05
2023-10-20T19:40:59.845Z,7.20
2023-10-20T19:43:27.238Z,7.28
2023-10-20T19:45:54.243Z,6.68
2023-10-20T19:48:20.901Z,6.78
2023-10-20T19:50:47.459Z,6.55
2023-10-20T19:53:14.899Z,6.43
2023-10-20T19:55:42.382Z,6.50
2023-10-20T19:58:08.895Z,6.60
2023-10-20T20:00:35.609Z,7.18
2023-10-20T20:03:02.399Z,7.05
2023-10-20T20:05:29.005Z,7.30
2023-10-20T20:07:55.891Z,7.88
2023-10-20T20:10:24.931Z,6.85
2023-10-20T20:12:51.742Z,7.47
2023-10-20T20:15:18.867Z,7.78
2023-10-20T20:17:45.576Z,7.70
2023-10-20T20:20:13.258Z,6.70
2023-10-20T20:22:39.889Z,9.43
2023-10-20T20:25:06.592Z,8.77
2023-10-20T20:27:33.110Z,8.98
2023-10-20T20:29:59.668Z,9.52
2023-10-20T20:32:26.224Z,10.43
2023-10-20T20:34:52.776Z,9.10
2023-10-20T20:37:20.315Z,8.38
2023-10-20T20:39:47.027Z,8.13
2023-10-20T20:42:14.952Z,7.78
2023-10-20T20:44:41.573Z,8.52
2023-10-20T20:47:08.235Z,8.65
2023-10-20T20:49:35.801Z,8.75
2023-10-20T20:52:02.658Z,8.40
2023-10-20T20:54:29.233Z,9.52
2023-10-20T20:56:55.831Z,9.25
2023-10-20T20:59:22.381Z,9.10
2023-10-20T21:01:48.995Z,9.90
2023-10-20T21:04:15.659Z,9.65
2023-10-20T21:06:42.263Z,10.10
2023-10-20T21:09:10.438Z,9.52
2023-10-20T21:11:37.723Z,9.30
2023-10-20T21:14:04.299Z,9.73
2023-10-20T21:16:32.120Z,10.07
2023-10-20T21:19:01.573Z,10.18
2023-10-20T21:21:28.433Z,9.77
2023-10-20T21:23:55.036Z,8.50
2023-10-20T21:26:22.871Z,8.00
2023-10-20T21:28:49.544Z,7.45
2023-10-20T21:31:16.249Z,7.13
2023-10-20T21:33:42.965Z,6.78
2023-10-20T21:36:14.600Z,7.05
2023-10-20T21:38:41.180Z,6.07
2023-10-20T21:41:07.856Z,6.70
2023-10-20T21:43:34.554Z,6.70
2023-10-20T21:46:01.233Z,6.20
2023-10-20T21:48:27.996Z,6.00
2023-10-20T21:50:58.418Z,7.63
2023-10-20T21:53:25.395Z,6.25
2023-10-20T21:56:02.183Z,6.32
2023-10-20T21:58:29.025Z,6.85
2023-10-20T22:00:56.200Z,5.97
2023-10-20T22:03:23.207Z,6.28
2023-10-20T22:05:51.289Z,7.47
2023-10-20T22:08:17.808Z,6.18
2023-10-20T22:10:44.549Z,7.45
2023-10-20T22:13:11.078Z,7.32
2023-10-20T22:15:37.707Z,7.57
2023-10-20T22:18:05.160Z,7.03
2023-10-20T22:20:31.661Z,6.85
2023-10-20T22:22:58.237Z,6.55
2023-10-20T22:25:24.780Z,6.30
2023-10-20T22:27:51.428Z,6.70
2023-10-20T22:30:18.586Z,7.10
2023-10-20T22:32:45.560Z,7.45
2023-10-20T22:35:12.151Z,6.80
2023-10-20T22:37:38.706Z,7.13
2023-10-20T22:40:05.417Z,6.70
2023-10-20T22:42:32.243Z,7.25
2023-10-20T22:44:58.830Z,7.28
2023-10-20T22:47:25.510Z,7.22
2023-10-20T22:49:52.349Z,6.22
2023-10-20T22:52:18.797Z,7.28
2023-10-20T22:54:45.287Z,6.60
2023-10-20T22:57:11.978Z,7.45
2023-10-20T22:59:38.544Z,7.65
2023-10-20T23:02:05.103Z,7.03
2023-10-20T23:04:31.731Z,6.32
2023-10-20T23:06:58.459Z,6.45
2023-10-20T23:09:24.953Z,6.60
2023-10-20T23:11:52.305Z,6.18
2023-10-20T23:14:18.909Z,6.05
2023-10-20T23:16:45.437Z,6.70
2023-10-20T23:19:12.008Z,6.97
2023-10-20T23:21:38.588Z,6.95
2023-10-20T23:24:05.274Z,6.72
2023-10-20T23:26:31.983Z,6.57
2023-10-20T23:28:58.462Z,6.57
2023-10-20T23:31:24.989Z,6.35
2023-10-20T23:33:52.018Z,7.10
2023-10-20T23:36:18.727Z,6.10
2023-10-20T23:38:45.240Z,5.93
2023-10-20T23:41:11.754Z,5.85
2023-10-20T23:43:38.242Z,6.03
2023-10-20T23:46:04.830Z,5.55
2023-10-20T23:48:31.523Z,5.70
2023-10-20T23:50:58.123Z,5.45
2023-10-20T23:53:24.637Z,5.85
2023-10-20T23:55:51.064Z,5.00
2023-10-20T23:58:17.526Z,5.57
